sensor_id;sensor_type;location;lat;lon;timestamp;pressure;altitude;pressure_sealevel;temperature;humidity
50123;BME280;36021;48.670;6.184;2022-09-14T00:01:05;98135.94;;;22.46;100.00
50123;BME280;36021;48.670;6.184;2022-09-14T00:03:31;98129.91;;;22.44;100.00
50123;BME280;36021;48.670;6.184;2022-09-14T00:06:01;98131.06;;;22.36;100.00
50123;BME280;36021;48.670;6.184;2022-09-14T00:08:26;98137.47;;;22.33;100.00
50123;BME280;36021;48.670;6.184;2022-09-14T00:10:52;98127.88;;;22.34;100.00
50123;BME280;36021;48.670;6.184;2022-09-14T00:13:18;98124.63;;;22.25;100.00
50123;BME280;36021;48.670;6.184;2022-09-14T00:15:43;98135.03;;;22.21;100.00
50123;BME280;36021;48.670;6.184;2022-09-14T00:18:10;98135.78;;;22.11;100.00
50123;BME280;36021;48.670;6.184;2022-09-14T00:20:36;98143.75;;;22.09;100.00
50123;BME280;36021;48.670;6.184;2022-09-14T00:23:02;98139.72;;;22.03;100.00
50123;BME280;36021;48.670;6.184;2022-09-14T00:25:28;98138.13;;;22.02;100.00
50123;BME280;36021;48.670;6.184;2022-09-14T00:27:56;98118.88;;;22.00;100.00
50123;BME280;36021;48.670;6.184;2022-09-14T00:30:21;98108.06;;;22.06;100.00
50123;BME280;36021;48.670;6.184;2022-09-14T00:32:48;98109.69;;;22.07;100.00
50123;BME280;36021;48.670;6.184;2022-09-14T00:35:17;98118.50;;;22.09;100.00
50123;BME280;36021;48.670;6.184;2022-09-14T00:37:43;98116.91;;;22.08;100.00
50123;BME280;36021;48.670;6.184;2022-09-14T00:40:09;98118.94;;;22.11;100.00
50123;BME280;36021;48.670;6.184;2022-09-14T00:42:35;98109.72;;;22.14;100.00
50123;BME280;36021;48.670;6.184;2022-09-14T00:45:04;98104.09;;;22.14;100.00
50123;BME280;36021;48.670;6.184;2022-09-14T00:47:30;98100.13;;;22.15;100.00
50123;BME280;36021;48.670;6.184;2022-09-14T00:49:57;98094.06;;;22.13;100.00
50123;BME280;36021;48.670;6.184;2022-09-14T00:52:25;98097.66;;;22.06;100.00
50123;BME280;36021;48.670;6.184;2022-09-14T00:57:18;98106.03;;;21.99;100.00
50123;BME280;36021;48.670;6.184;2022-09-14T00:59:45;98100.88;;;22.05;100.00
50123;BME280;36021;48.670;6.184;2022-09-14T01:02:11;98090.00;;;22.03;100.00
50123;BME280;36021;48.670;6.184;2022-09-14T01:04:39;98086.81;;;22.05;100.00
50123;BME280;36021;48.670;6.184;2022-09-14T01:07:53;98088.41;;;22.06;100.00
50123;BME280;36021;48.670;6.184;2022-09-14T01:15:00;98081.19;;;22.01;100.00
50123;BME280;36021;48.670;6.184;2022-09-14T01:17:39;98076.38;;;22.02;100.00
50123;BME280;36021;48.670;6.184;2022-09-14T01:20:10;98076.34;;;21.95;100.00
50123;BME280;36021;48.670;6.184;2022-09-14T01:22:59;98086.34;;;21.96;100.00
50123;BME280;36021;48.670;6.184;2022-09-14T01:27:56;98094.78;;;21.96;100.00
50123;BME280;36021;48.670;6.184;2022-09-14T01:30:24;98098.81;;;21.95;100.00
50123;BME280;36021;48.670;6.184;2022-09-14T01:37:44;98103.97;;;21.89;100.00
50123;BME280;36021;48.670;6.184;2022-09-14T01:40:28;98109.53;;;21.86;100.00
50123;BME280;36021;48.670;6.184;2022-09-14T01:43:03;98113.09;;;21.82;100.00
50123;BME280;36021;48.670;6.184;2022-09-14T01:45:30;98117.06;;;21.74;100.00
50123;BME280;36021;48.670;6.184;2022-09-14T01:47:59;98113.88;;;21.79;100.00
50123;BME280;36021;48.670;6.184;2022-09-14T01:50:31;98116.31;;;21.81;100.00
50123;BME280;36021;48.670;6.184;2022-09-14T01:55:32;98113.50;;;21.77;100.00
50123;BME280;36021;48.670;6.184;2022-09-14T02:00:44;98116.31;;;21.81;100.00
50123;BME280;36021;48.670;6.184;2022-09-14T02:03:18;98113.56;;;21.88;100.00
50123;BME280;36021;48.670;6.184;2022-09-14T02:06:06;98115.63;;;21.91;100.00
50123;BME280;36021;48.670;6.184;2022-09-14T02:08:30;98120.81;;;21.93;100.00
50123;BME280;36021;48.670;6.184;2022-09-14T02:10:57;98111.66;;;22.03;100.00
50123;BME280;36021;48.670;6.184;2022-09-14T02:13:23;98115.22;;;21.93;100.00
50123;BME280;36021;48.670;6.184;2022-09-14T02:15:49;98116.00;;;21.90;100.00
50123;BME280;36021;48.670;6.184;2022-09-14T02:18:15;98112.34;;;21.86;100.00
50123;BME280;36021;48.670;6.184;2022-09-14T02:20:49;98113.91;;;21.83;100.00
50123;BME280;36021;48.670;6.184;2022-09-14T02:23:16;98116.38;;;21.88;100.00
50123;BME280;36021;48.670;6.184;2022-09-14T02:25:42;98109.94;;;21.88;100.00
50123;BME280;36021;48.670;6.184;2022-09-14T02:28:08;98115.22;;;21.93;100.00
50123;BME280;36021;48.670;6.184;2022-09-14T02:33:58;98118.84;;;21.97;100.00
50123;BME280;36021;48.670;6.184;2022-09-14T02:39:06;98118.13;;;22.10;100.00
50123;BME280;36021;48.670;6.184;2022-09-14T02:44:19;98118.16;;;22.17;100.00
50123;BME280;36021;48.670;6.184;2022-09-14T02:49:24;98112.94;;;22.19;100.00
50123;BME280;36021;48.670;6.184;2022-09-14T02:54:53;98111.69;;;22.06;100.00
50123;BME280;36021;48.670;6.184;2022-09-14T02:57:21;98106.91;;;22.14;100.00
50123;BME280;36021;48.670;6.184;2022-09-14T02:59:46;98096.06;;;22.12;100.00
50123;BME280;36021;48.670;6.184;2022-09-14T03:02:12;98094.06;;;22.13;100.00
50123;BME280;36021;48.670;6.184;2022-09-14T03:04:37;98099.72;;;22.20;100.00
50123;BME280;36021;48.670;6.184;2022-09-14T03:07:06;98090.13;;;22.24;100.00
50123;BME280;36021;48.670;6.184;2022-09-14T03:09:34;98082.06;;;22.19;100.00
50123;BME280;36021;48.670;6.184;2022-09-14T03:11:59;98073.25;;;22.21;100.00
50123;BME280;36021;48.670;6.184;2022-09-14T03:14:25;98070.41;;;22.14;100.00
50123;BME280;36021;48.670;6.184;2022-09-14T03:16:50;98067.22;;;22.19;100.00
50123;BME280;36021;48.670;6.184;2022-09-14T03:19:16;98058.00;;;22.22;100.00
50123;BME280;36021;48.670;6.184;2022-09-14T03:21:41;98060.41;;;22.20;100.00
50123;BME280;36021;48.670;6.184;2022-09-14T03:24:07;98041.53;;;22.13;100.00
50123;BME280;36021;48.670;6.184;2022-09-14T03:26:35;98043.97;;;22.22;100.00
50123;BME280;36021;48.670;6.184;2022-09-14T03:29:03;98054.84;;;22.27;100.00
50123;BME280;36021;48.670;6.184;2022-09-14T03:31:29;98058.00;;;22.22;100.00
50123;BME280;36021;48.670;6.184;2022-09-14T03:33:56;98062.06;;;22.28;100.00
50123;BME280;36021;48.670;6.184;2022-09-14T03:36:24;98062.06;;;22.24;100.00
50123;BME280;36021;48.670;6.184;2022-09-14T03:38:51;98075.66;;;22.22;100.00
50123;BME280;36021;48.670;6.184;2022-09-14T03:41:17;98074.88;;;22.29;100.00
50123;BME280;36021;48.670;6.184;2022-09-14T03:43:43;98079.69;;;22.25;100.00
50123;BME280;36021;48.670;6.184;2022-09-14T03:46:12;98074.09;;;22.25;100.00
50123;BME280;36021;48.670;6.184;2022-09-14T03:48:38;98076.44;;;22.16;100.00
50123;BME280;36021;48.670;6.184;2022-09-14T03:51:05;98076.41;;;22.09;100.00
50123;BME280;36021;48.670;6.184;2022-09-14T03:53:31;98077.22;;;22.13;100.00
50123;BME280;36021;48.670;6.184;2022-09-14T03:55:57;98081.25;;;22.19;100.00
50123;BME280;36021;48.670;6.184;2022-09-14T03:58:22;98081.25;;;22.12;100.00
50123;BME280;36021;48.670;6.184;2022-09-14T04:00:48;98082.03;;;22.12;100.00
50123;BME280;36021;48.670;6.184;2022-09-14T04:03:14;98084.06;;;22.19;100.00
50123;BME280;36021;48.670;6.184;2022-09-14T04:05:40;98070.81;;;22.16;100.00
50123;BME280;36021;48.670;6.184;2022-09-14T04:08:06;98077.66;;;22.15;100.00
50123;BME280;36021;48.670;6.184;2022-09-14T04:10:32;98071.66;;;22.20;100.00
50123;BME280;36021;48.670;6.184;2022-09-14T04:12:58;98074.41;;;22.13;100.00
50123;BME280;36021;48.670;6.184;2022-09-14T04:15:23;98067.63;;;22.17;100.00
50123;BME280;36021;48.670;6.184;2022-09-14T04:17:49;98078.41;;;22.05;100.00
50123;BME280;36021;48.670;6.184;2022-09-14T04:20:15;98079.59;;;22.04;100.00
50123;BME280;36021;48.670;6.184;2022-09-14T04:22:42;98079.59;;;22.04;100.00
50123;BME280;36021;48.670;6.184;2022-09-14T04:25:08;98074.72;;;21.90;100.00
50123;BME280;36021;48.670;6.184;2022-09-14T04:27:35;98066.63;;;21.81;100.00
50123;BME280;36021;48.670;6.184;2022-09-14T04:30:01;98068.22;;;21.82;100.00
50123;BME280;36021;48.670;6.184;2022-09-14T04:32:26;98070.63;;;21.80;100.00
50123;BME280;36021;48.670;6.184;2022-09-14T04:34:52;98069.72;;;21.62;100.00
50123;BME280;36021;48.670;6.184;2022-09-14T04:37:17;98072.03;;;21.53;100.00
50123;BME280;36021;48.670;6.184;2022-09-14T04:39:43;98070.44;;;21.49;100.00
50123;BME280;36021;48.670;6.184;2022-09-14T04:42:08;98077.16;;;21.41;100.00
50123;BME280;36021;48.670;6.184;2022-09-14T04:44:34;98072.66;;;21.25;100.00
50123;BME280;36021;48.670;6.184;2022-09-14T04:46:59;98075.00;;;21.16;100.00
50123;BME280;36021;48.670;6.184;2022-09-14T04:49:25;98081.78;;;21.15;100.00
50123;BME280;36021;48.670;6.184;2022-09-14T04:51:50;98087.69;;;21.07;100.00
50123;BME280;36021;48.670;6.184;2022-09-14T04:54:16;98087.00;;;21.17;100.00
50123;BME280;36021;48.670;6.184;2022-09-14T04:56:42;98087.88;;;21.28;100.00
50123;BME280;36021;48.670;6.184;2022-09-14T04:59:08;98089.13;;;21.34;100.00
50123;BME280;36021;48.670;6.184;2022-09-14T05:01:36;98097.25;;;21.46;100.00
50123;BME280;36021;48.670;6.184;2022-09-14T05:04:03;98080.91;;;21.55;100.00
50123;BME280;36021;48.670;6.184;2022-09-14T05:06:29;98079.34;;;21.65;100.00
50123;BME280;36021;48.670;6.184;2022-09-14T05:08:55;98067.31;;;21.64;100.00
50123;BME280;36021;48.670;6.184;2022-09-14T05:11:22;98079.25;;;21.51;100.00
50123;BME280;36021;48.670;6.184;2022-09-14T05:13:49;98081.72;;;21.59;100.00
50123;BME280;36021;48.670;6.184;2022-09-14T05:16:17;98077.28;;;21.55;100.00
50123;BME280;36021;48.670;6.184;2022-09-14T05:18:43;98081.63;;;21.45;100.00
50123;BME280;36021;48.670;6.184;2022-09-14T05:21:10;98081.41;;;21.20;100.00
50123;BME280;36021;48.670;6.184;2022-09-14T05:23:35;98078.28;;;21.29;100.00
50123;BME280;36021;48.670;6.184;2022-09-14T05:26:01;98078.16;;;21.15;100.00
50123;BME280;36021;48.670;6.184;2022-09-14T05:28:28;98079.81;;;21.19;100.00
50123;BME280;36021;48.670;6.184;2022-09-14T05:30:53;98069.44;;;21.27;100.00
50123;BME280;36021;48.670;6.184;2022-09-14T05:33:21;98068.34;;;21.39;100.00
50123;BME280;36021;48.670;6.184;2022-09-14T05:35:48;98051.13;;;21.40;100.00
50123;BME280;36021;48.670;6.184;2022-09-14T05:38:15;98053.97;;;21.47;100.00
50123;BME280;36021;48.670;6.184;2022-09-14T05:40:40;98060.75;;;21.39;100.00
50123;BME280;36021;48.670;6.184;2022-09-14T05:43:06;98065.09;;;21.29;100.00
50123;BME280;36021;48.670;6.184;2022-09-14T05:45:32;98079.84;;;21.23;100.00
50123;BME280;36021;48.670;6.184;2022-09-14T05:48:01;98076.81;;;21.02;100.00
50123;BME280;36021;48.670;6.184;2022-09-14T05:50:32;98082.56;;;20.75;100.00
50123;BME280;36021;48.670;6.184;2022-09-14T05:52:58;98091.53;;;20.51;100.00
50123;BME280;36021;48.670;6.184;2022-09-14T05:55:24;98082.28;;;20.47;100.00
50123;BME280;36021;48.670;6.184;2022-09-14T05:57:50;98079.25;;;20.63;100.00
50123;BME280;36021;48.670;6.184;2022-09-14T06:00:16;98076.78;;;20.54;100.00
50123;BME280;36021;48.670;6.184;2022-09-14T06:02:45;98086.00;;;20.58;100.00
50123;BME280;36021;48.670;6.184;2022-09-14T06:05:11;98071.66;;;20.63;100.00
50123;BME280;36021;48.670;6.184;2022-09-14T06:07:37;98072.13;;;20.69;100.00
50123;BME280;36021;48.670;6.184;2022-09-14T06:10:04;98072.56;;;20.71;100.00
50123;BME280;36021;48.670;6.184;2022-09-14T06:12:30;98073.00;;;20.76;100.00
50123;BME280;36021;48.670;6.184;2022-09-14T06:14:55;98066.63;;;20.79;100.00
50123;BME280;36021;48.670;6.184;2022-09-14T06:17:21;98069.06;;;20.85;100.00
50123;BME280;36021;48.670;6.184;2022-09-14T06:19:46;98069.50;;;20.87;100.00
50123;BME280;36021;48.670;6.184;2022-09-14T06:22:12;98065.94;;;20.93;100.00
50123;BME280;36021;48.670;6.184;2022-09-14T06:24:37;98064.00;;;21.01;100.00
50123;BME280;36021;48.670;6.184;2022-09-14T06:27:03;98066.13;;;21.11;100.00
50123;BME280;36021;48.670;6.184;2022-09-14T06:29:31;98061.75;;;21.13;100.00
50123;BME280;36021;48.670;6.184;2022-09-14T06:31:57;98054.13;;;21.14;100.00
50123;BME280;36021;48.670;6.184;2022-09-14T06:34:22;98037.31;;;21.14;100.00
50123;BME280;36021;48.670;6.184;2022-09-14T06:36:49;98039.81;;;21.22;100.00
50123;BME280;36021;48.670;6.184;2022-09-14T06:39:14;98053.84;;;21.26;100.00
50123;BME280;36021;48.670;6.184;2022-09-14T06:41:40;98066.28;;;21.28;100.00
50123;BME280;36021;48.670;6.184;2022-09-14T06:44:17;98061.03;;;21.27;100.00
50123;BME280;36021;48.670;6.184;2022-09-14T06:46:43;98060.75;;;21.39;100.00
50123;BME280;36021;48.670;6.184;2022-09-14T06:49:12;98072.78;;;21.40;100.00
50123;BME280;36021;48.670;6.184;2022-09-14T06:51:39;98058.34;;;21.41;100.00
50123;BME280;36021;48.670;6.184;2022-09-14T06:54:05;98065.56;;;21.42;100.00
50123;BME280;36021;48.670;6.184;2022-09-14T06:56:33;98073.59;;;21.47;100.00
50123;BME280;36021;48.670;6.184;2022-09-14T06:58:58;98069.88;;;21.29;100.00
50123;BME280;36021;48.670;6.184;2022-09-14T07:01:24;98069.44;;;21.23;100.00
50123;BME280;36021;48.670;6.184;2022-09-14T07:03:50;98078.94;;;21.12;100.00
50123;BME280;36021;48.670;6.184;2022-09-14T07:06:27;98079.13;;;21.33;100.00
50123;BME280;36021;48.670;6.184;2022-09-14T07:08:54;98080.00;;;21.44;100.00
50123;BME280;36021;48.670;6.184;2022-09-14T07:11:23;98068.88;;;21.58;100.00
50123;BME280;36021;48.670;6.184;2022-09-14T07:13:50;98071.31;;;21.63;100.00
50123;BME280;36021;48.670;6.184;2022-09-14T07:16:16;98082.13;;;21.61;100.00
50123;BME280;36021;48.670;6.184;2022-09-14T07:18:41;98084.22;;;21.75;100.00
50123;BME280;36021;48.670;6.184;2022-09-14T07:23:34;98076.13;;;21.59;100.00
50123;BME280;36021;48.670;6.184;2022-09-14T07:26:08;98056.97;;;21.75;100.00
50123;BME280;36021;48.670;6.184;2022-09-14T07:28:35;98058.69;;;21.91;100.00
50123;BME280;36021;48.670;6.184;2022-09-14T07:31:06;98056.34;;;22.07;100.00
50123;BME280;36021;48.670;6.184;2022-09-14T07:33:38;98041.19;;;22.18;100.00
50123;BME280;36021;48.670;6.184;2022-09-14T07:36:08;98043.50;;;22.02;100.00
50123;BME280;36021;48.670;6.184;2022-09-14T07:38:34;98036.38;;;22.26;100.00
50123;BME280;36021;48.670;6.184;2022-09-14T07:40:59;98044.84;;;22.40;100.00
50123;BME280;36021;48.670;6.184;2022-09-14T07:43:25;98053.28;;;22.40;100.00
50123;BME280;36021;48.670;6.184;2022-09-14T07:45:51;98052.47;;;22.43;100.00
50123;BME280;36021;48.670;6.184;2022-09-14T07:48:16;98062.47;;;22.33;100.00
50123;BME280;36021;48.670;6.184;2022-09-14T07:50:42;98076.44;;;22.19;100.00
50123;BME280;36021;48.670;6.184;2022-09-14T07:53:07;98082.19;;;22.44;100.00
50123;BME280;36021;48.670;6.184;2022-09-14T07:55:33;98081.41;;;22.51;100.00
50123;BME280;36021;48.670;6.184;2022-09-14T07:57:58;98078.91;;;22.35;100.00
50123;BME280;36021;48.670;6.184;2022-09-14T08:00:24;98087.00;;;22.47;100.00
50123;BME280;36021;48.670;6.184;2022-09-14T08:02:50;98107.06;;;22.53;100.00
50123;BME280;36021;48.670;6.184;2022-09-14T08:05:16;98095.44;;;22.61;100.00
50123;BME280;36021;48.670;6.184;2022-09-14T08:07:44;98106.38;;;22.88;100.00
50123;BME280;36021;48.670;6.184;2022-09-14T08:10:10;98096.78;;;23.24;100.00
50123;BME280;36021;48.670;6.184;2022-09-14T08:12:36;98073.38;;;25.47;100.00
50123;BME280;36021;48.670;6.184;2022-09-14T08:15:02;98053.09;;;26.00;100.00
50123;BME280;36021;48.670;6.184;2022-09-14T08:17:28;98059.97;;;25.10;100.00
50123;BME280;36021;48.670;6.184;2022-09-14T08:19:53;98060.31;;;24.57;100.00
50123;BME280;36021;48.670;6.184;2022-09-14T08:22:20;98069.81;;;25.83;100.00
50123;BME280;36021;48.670;6.184;2022-09-14T08:24:45;98043.59;;;27.77;100.00
50123;BME280;36021;48.670;6.184;2022-09-14T08:27:12;98024.78;;;30.24;100.00
50123;BME280;36021;48.670;6.184;2022-09-14T08:29:38;98028.75;;;29.04;100.00
50123;BME280;36021;48.670;6.184;2022-09-14T08:32:04;98031.34;;;29.63;100.00
50123;BME280;36021;48.670;6.184;2022-09-14T08:34:29;98031.47;;;28.75;100.00
50123;BME280;36021;48.670;6.184;2022-09-14T08:36:56;98032.53;;;27.63;100.00
50123;BME280;36021;48.670;6.184;2022-09-14T08:39:21;98021.44;;;27.03;100.00
50123;BME280;36021;48.670;6.184;2022-09-14T08:41:56;98035.25;;;26.40;100.00
50123;BME280;36021;48.670;6.184;2022-09-14T08:44:41;98049.13;;;25.94;100.00
50123;BME280;36021;48.670;6.184;2022-09-14T08:47:11;98035.03;;;25.49;100.00
50123;BME280;36021;48.670;6.184;2022-09-14T08:49:47;98024.84;;;25.62;100.00
50123;BME280;36021;48.670;6.184;2022-09-14T08:52:21;98031.38;;;25.93;100.00
50123;BME280;36021;48.670;6.184;2022-09-14T08:54:49;98018.28;;;25.72;100.00
50123;BME280;36021;48.670;6.184;2022-09-14T09:00:04;98026.66;;;25.42;100.00
50123;BME280;36021;48.670;6.184;2022-09-14T09:10:31;98021.66;;;25.16;100.00
50123;BME280;36021;48.670;6.184;2022-09-14T09:12:58;98017.19;;;25.18;100.00
50123;BME280;36021;48.670;6.184;2022-09-14T09:15:29;98026.78;;;25.28;100.00
50123;BME280;36021;48.670;6.184;2022-09-14T09:17:58;98013.31;;;25.42;100.00
50123;BME280;36021;48.670;6.184;2022-09-14T09:20:26;97999.84;;;25.64;100.00
50123;BME280;36021;48.670;6.184;2022-09-14T09:28:18;98010.75;;;25.18;100.00
50123;BME280;36021;48.670;6.184;2022-09-14T09:30:45;98000.41;;;25.45;100.00
50123;BME280;36021;48.670;6.184;2022-09-14T09:33:16;97998.78;;;25.48;100.00
50123;BME280;36021;48.670;6.184;2022-09-14T09:36:05;98002.59;;;25.27;100.00
50123;BME280;36021;48.670;6.184;2022-09-14T09:38:31;97989.47;;;25.54;100.00
50123;BME280;36021;48.670;6.184;2022-09-14T09:40:59;97995.19;;;25.44;100.00
50123;BME280;36021;48.670;6.184;2022-09-14T09:43:26;97990.94;;;25.66;100.00
50123;BME280;36021;48.670;6.184;2022-09-14T09:48:18;97996.81;;;25.41;100.00
50123;BME280;36021;48.670;6.184;2022-09-14T09:50:48;97984.16;;;25.60;100.00
50123;BME280;36021;48.670;6.184;2022-09-14T09:53:15;97980.63;;;25.52;100.00
50123;BME280;36021;48.670;6.184;2022-09-14T09:55:45;97992.09;;;25.31;100.00
50123;BME280;36021;48.670;6.184;2022-09-14T10:01:03;97977.72;;;25.18;100.00
50123;BME280;36021;48.670;6.184;2022-09-14T10:03:33;97989.03;;;25.15;100.00
50123;BME280;36021;48.670;6.184;2022-09-14T10:05:59;97993.75;;;25.25;100.00
50123;BME280;36021;48.670;6.184;2022-09-14T10:08:27;97981.28;;;25.26;100.00
50123;BME280;36021;48.670;6.184;2022-09-14T10:11:02;97986.38;;;25.38;100.00
50123;BME280;36021;48.670;6.184;2022-09-14T10:13:32;97989.19;;;25.38;100.00
50123;BME280;36021;48.670;6.184;2022-09-14T10:16:32;97982.03;;;24.85;100.00
50123;BME280;36021;48.670;6.184;2022-09-14T10:18:50;97983.19;;;24.88;100.00
50123;BME280;36021;48.670;6.184;2022-09-14T10:21:17;97983.69;;;24.72;100.00
50123;BME280;36021;48.670;6.184;2022-09-14T10:23:43;97976.13;;;24.62;100.00
50123;BME280;36021;48.670;6.184;2022-09-14T10:28:35;97987.41;;;24.62;100.00
50123;BME280;36021;48.670;6.184;2022-09-14T10:31:06;97984.97;;;24.64;100.00
50123;BME280;36021;48.670;6.184;2022-09-14T10:33:36;97989.69;;;24.78;100.00
50123;BME280;36021;48.670;6.184;2022-09-14T10:41:42;97990.84;;;24.87;100.00
50123;BME280;36021;48.670;6.184;2022-09-14T10:52:49;97999.78;;;24.82;100.00
50123;BME280;36021;48.670;6.184;2022-09-14T10:55:27;98010.03;;;24.45;100.00
50123;BME280;36021;48.670;6.184;2022-09-14T10:58:03;98017.81;;;24.23;100.00
50123;BME280;36021;48.670;6.184;2022-09-14T11:00:35;98017.00;;;24.22;100.00
50123;BME280;36021;48.670;6.184;2022-09-14T11:03:14;98018.63;;;24.27;100.00
50123;BME280;36021;48.670;6.184;2022-09-14T11:05:57;98028.78;;;23.93;100.00
50123;BME280;36021;48.670;6.184;2022-09-14T11:08:45;98030.84;;;23.71;100.00
50123;BME280;36021;48.670;6.184;2022-09-14T11:24:10;98052.41;;;22.29;100.00
50123;BME280;36021;48.670;6.184;2022-09-14T11:26:38;98055.59;;;22.17;100.00
50123;BME280;36021;48.670;6.184;2022-09-14T11:36:47;98047.00;;;21.81;100.00
50123;BME280;36021;48.670;6.184;2022-09-14T11:39:18;98060.22;;;21.81;100.00
50123;BME280;36021;48.670;6.184;2022-09-14T11:41:58;98057.00;;;21.82;100.00
50123;BME280;36021;48.670;6.184;2022-09-14T11:44:38;98057.78;;;21.79;100.00
50123;BME280;36021;48.670;6.184;2022-09-14T11:47:12;98058.53;;;21.73;100.00
50123;BME280;36021;48.670;6.184;2022-09-14T11:49:57;98057.72;;;21.65;100.00
50123;BME280;36021;48.670;6.184;2022-09-14T11:52:25;98055.69;;;21.62;100.00
50123;BME280;36021;48.670;6.184;2022-09-14T11:54:51;98060.84;;;21.57;100.00
50123;BME280;36021;48.670;6.184;2022-09-14T11:57:28;98057.22;;;21.49;100.00
50123;BME280;36021;48.670;6.184;2022-09-14T12:00:00;98052.06;;;21.58;100.00
50123;BME280;36021;48.670;6.184;2022-09-14T12:12:41;98052.09;;;21.62;100.00
50123;BME280;36021;48.670;6.184;2022-09-14T12:17:38;98056.31;;;21.38;100.00
50123;BME280;36021;48.670;6.184;2022-09-14T12:22:50;98039.84;;;21.29;100.00
50123;BME280;36021;48.670;6.184;2022-09-14T12:25:19;98047.03;;;21.27;100.00
50123;BME280;36021;48.670;6.184;2022-09-14T12:27:47;98045.41;;;21.22;100.00
50123;BME280;36021;48.670;6.184;2022-09-14T12:32:58;98043.34;;;21.16;100.00
50123;BME280;36021;48.670;6.184;2022-09-14T12:37:58;98050.81;;;21.05;100.00
50123;BME280;36021;48.670;6.184;2022-09-14T12:42:53;98033.16;;;20.94;100.00
50123;BME280;36021;48.670;6.184;2022-09-14T12:48:03;98035.50;;;20.92;100.00
50123;BME280;36021;48.670;6.184;2022-09-14T12:50:29;98036.34;;;20.96;100.00
50123;BME280;36021;48.670;6.184;2022-09-14T12:53:04;98036.78;;;21.01;100.00
50123;BME280;36021;48.670;6.184;2022-09-14T12:55:37;98027.56;;;21.01;100.00
50123;BME280;36021;48.670;6.184;2022-09-14T13:03:46;98027.31;;;21.78;100.00
50123;BME280;36021;48.670;6.184;2022-09-14T13:06:13;98019.50;;;22.19;100.00
50123;BME280;36021;48.670;6.184;2022-09-14T13:08:41;98004.41;;;22.76;100.00
50123;BME280;36021;48.670;6.184;2022-09-14T13:11:07;98014.41;;;22.63;100.00
50123;BME280;36021;48.670;6.184;2022-09-14T13:13:33;98004.00;;;22.74;100.00
50123;BME280;36021;48.670;6.184;2022-09-14T13:16:01;98001.97;;;22.71;100.00
50123;BME280;36021;48.670;6.184;2022-09-14T13:18:34;97995.94;;;22.62;100.00
50123;BME280;36021;48.670;6.184;2022-09-14T13:21:02;98017.25;;;22.70;100.00
50123;BME280;36021;48.670;6.184;2022-09-14T13:25:53;98018.81;;;22.57;100.00
50123;BME280;36021;48.670;6.184;2022-09-14T13:28:19;98030.41;;;22.52;100.00
50123;BME280;36021;48.670;6.184;2022-09-14T13:30:52;98008.34;;;22.40;100.00
50123;BME280;36021;48.670;6.184;2022-09-14T13:33:19;98009.13;;;22.37;100.00
50123;BME280;36021;48.670;6.184;2022-09-14T13:35:46;98007.50;;;22.29;100.00
50123;BME280;36021;48.670;6.184;2022-09-14T13:38:17;98014.75;;;22.33;100.00
50123;BME280;36021;48.670;6.184;2022-09-14T13:40:43;97997.50;;;22.42;100.00
50123;BME280;36021;48.670;6.184;2022-09-14T13:43:09;98004.34;;;22.52;100.00
50123;BME280;36021;48.670;6.184;2022-09-14T13:45:35;98003.53;;;22.44;100.00
50123;BME280;36021;48.670;6.184;2022-09-14T13:48:01;98012.69;;;22.20;100.00
50123;BME280;36021;48.670;6.184;2022-09-14T13:50:28;97999.50;;;22.31;100.00
50123;BME280;36021;48.670;6.184;2022-09-14T13:52:54;98004.34;;;22.41;100.00
50123;BME280;36021;48.670;6.184;2022-09-14T13:55:27;97998.66;;;22.16;100.00
50123;BME280;36021;48.670;6.184;2022-09-14T14:03:56;97973.53;;;24.30;100.00
50123;BME280;36021;48.670;6.184;2022-09-14T14:06:25;97944.88;;;25.72;100.00
50123;BME280;36021;48.670;6.184;2022-09-14T14:09:03;97943.88;;;25.89;100.00
50123;BME280;36021;48.670;6.184;2022-09-14T14:11:31;97914.00;;;27.42;100.00
50123;BME280;36021;48.670;6.184;2022-09-14T14:16:35;97917.03;;;28.30;100.00
50123;BME280;36021;48.670;6.184;2022-09-14T14:19:00;97905.03;;;29.80;100.00
50123;BME280;36021;48.670;6.184;2022-09-14T14:21:27;97904.50;;;29.12;100.00
50123;BME280;36021;48.670;6.184;2022-09-14T14:26:37;97889.88;;;30.00;100.00
50123;BME280;36021;48.670;6.184;2022-09-14T14:29:08;97889.50;;;29.56;100.00
50123;BME280;36021;48.670;6.184;2022-09-14T14:31:34;97891.69;;;29.36;100.00
50123;BME280;36021;48.670;6.184;2022-09-14T14:34:09;97892.34;;;29.56;100.00
50123;BME280;36021;48.670;6.184;2022-09-14T14:36:34;97887.66;;;28.40;100.00
50123;BME280;36021;48.670;6.184;2022-09-14T14:39:01;97889.13;;;26.87;100.00
50123;BME280;36021;48.670;6.184;2022-09-14T14:41:26;97877.66;;;26.48;100.00
50123;BME280;36021;48.670;6.184;2022-09-14T14:43:52;97882.09;;;25.65;100.00
50123;BME280;36021;48.670;6.184;2022-09-14T14:46:18;97882.81;;;24.98;100.00
50123;BME280;36021;48.670;6.184;2022-09-14T14:48:43;97887.16;;;25.09;100.00
50123;BME280;36021;48.670;6.184;2022-09-14T14:51:10;97909.97;;;24.77;100.00
50123;BME280;36021;48.670;6.184;2022-09-14T14:53:38;97912.38;;;24.31;100.00
50123;BME280;36021;48.670;6.184;2022-09-14T14:56:04;97942.59;;;24.20;100.00
50123;BME280;36021;48.670;6.184;2022-09-14T14:58:29;97964.00;;;24.00;100.00
50123;BME280;36021;48.670;6.184;2022-09-14T15:00:55;97995.41;;;23.91;100.00
50123;BME280;36021;48.670;6.184;2022-09-14T15:03:20;98013.94;;;23.85;100.00
50123;BME280;36021;48.670;6.184;2022-09-14T15:05:46;98037.69;;;23.63;100.00
50123;BME280;36021;48.670;6.184;2022-09-14T15:08:13;98014.03;;;23.21;100.00
50123;BME280;36021;48.670;6.184;2022-09-14T15:10:39;97995.56;;;22.89;100.00
50123;BME280;36021;48.670;6.184;2022-09-14T15:13:06;97978.72;;;23.03;100.00
50123;BME280;36021;48.670;6.184;2022-09-14T15:15:31;97980.94;;;23.89;100.00